Lower Shaft, Pennsylvania
Current Conditions -  °F | °C
As of 10:35 PM on Saturday 24 Jan 2015 (Local Time) from KHZL Reporting Station
Overcast Overcast  
Wind Chill: 21°   Ceiling: 1800
Heat Index: 30°   Visibility: 10mi
Dew Point: 25°   Wind: 10mph
Humidity: 80%   Direction: 280°W
Pressure: 29.5"   Gusts: 24mph
Location:  40.8208°N, 76.1672°W
Report Text: KHZL 250335Z AUTO 28009G21KT 10SM OVC018 M01/M04 A2950 RMK AO2
Loading
Personal Weather Stations






























Interactive Weather Map New forecast layout! Learn more

10-Day Weather Forecast

Advertisements
Track Severe Weather on mobile